Time;durP1;ratioP1;P1;durP2;ratioP2;P2;SDS_P1;SDS_P2;PMS_P1;PMS_P2;Temp;Humidity;BMP_temperature;BMP_pressure;BME280_temperature;BME280_humidity;BME280_pressure;Samples;Min_cycle;Max_cycle;Signal;HPM_P1;HPM_P2
2022/03/27 00:01:38;;;;;;;34.27;15.70;;;;;;;;;;5058613;28;20024;-68
2022/03/27 00:04:04;;;;;;;36.97;16.20;;;;;;;;;;5060680;28;20272;-68
2022/03/27 00:06:29;;;;;;;33.60;14.97;;;;;;;;;;5058461;28;20044;-67
2022/03/27 00:08:55;;;;;;;35.53;15.97;;;;;;;;;;5058921;28;20032;-67
2022/03/27 00:11:27;;;;;;;33.87;15.60;;;;;;;;;;5058551;28;20056;-67
2022/03/27 00:14:02;;;;;;;31.17;15.00;;;;;;;;;;5059345;28;20332;-67
2022/03/27 00:16:28;;;;;;;34.10;15.00;;;;;;;;;;5057554;28;20118;-68
2022/03/27 00:18:53;;;;;;;33.27;14.70;;;;;;;;;;5059187;28;20625;-68
2022/03/27 00:21:21;;;;;;;38.63;16.03;;;;;;;;;;5058903;28;20029;-68
2022/03/27 00:23:47;;;;;;;34.57;15.13;;;;;;;;;;5058289;28;20056;-68
2022/03/27 00:26:13;;;;;;;33.90;15.90;;;;;;;;;;5058254;28;20043;-68
2022/03/27 00:28:38;;;;;;;37.80;16.10;;;;;;;;;;5058005;28;20032;-68
2022/03/27 00:31:04;;;;;;;31.63;14.97;;;;;;;;;;5056894;28;20017;-68
2022/03/27 00:33:30;;;;;;;38.47;17.00;;;;;;;;;;5059207;28;20107;-68
2022/03/27 00:35:55;;;;;;;41.87;18.33;;;;;;;;;;5058571;28;20170;-68
2022/03/27 00:38:21;;;;;;;56.67;23.03;;;;;;;;;;5060704;28;20032;-68
2022/03/27 00:40:46;;;;;;;61.97;25.13;;;;;;;;;;5058743;28;20115;-68
2022/03/27 00:43:12;;;;;;;60.30;25.20;;;;;;;;;;5059462;28;20034;-68
2022/03/27 00:45:37;;;;;;;54.73;24.70;;;;;;;;;;5059169;28;20025;-68
2022/03/27 00:48:03;;;;;;;51.60;24.70;;;;;;;;;;5058467;28;20500;-68
2022/03/27 00:50:30;;;;;;;54.40;24.57;;;;;;;;;;5058586;28;20029;-68
2022/03/27 00:52:56;;;;;;;50.13;24.07;;;;;;;;;;5059136;28;20518;-67
2022/03/27 00:55:21;;;;;;;48.90;22.03;;;;;;;;;;5058383;28;20025;-68
2022/03/27 00:57:46;;;;;;;41.23;20.83;;;;;;;;;;5059121;28;20052;-68
2022/03/27 01:00:18;;;;;;;39.17;18.53;;;;;;;;;;5057820;28;20396;-67
2022/03/27 01:02:44;;;;;;;33.07;17.57;;;;;;;;;;5058947;28;20090;-67
2022/03/27 01:05:13;;;;;;;33.33;17.43;;;;;;;;;;5058487;28;20143;-68
2022/03/27 01:07:39;;;;;;;34.80;16.60;;;;;;;;;;5058936;28;20427;-67
2022/03/27 01:10:05;;;;;;;33.70;17.03;;;;;;;;;;5058270;28;20059;-67
2022/03/27 01:12:38;;;;;;;29.93;15.07;;;;;;;;;;5058539;28;20021;-67
2022/03/27 01:15:05;;;;;;;32.33;16.97;;;;;;;;;;5058552;28;20066;-67
2022/03/27 01:17:30;;;;;;;56.03;22.83;;;;;;;;;;5058223;28;20107;-67
2022/03/27 01:19:56;;;;;;;58.90;23.20;;;;;;;;;;5061376;28;20607;-67
2022/03/27 01:22:22;;;;;;;62.07;24.23;;;;;;;;;;5062738;28;20070;-67
2022/03/27 01:24:49;;;;;;;64.07;24.30;;;;;;;;;;5062202;28;20111;-67
2022/03/27 01:27:14;;;;;;;75.83;27.10;;;;;;;;;;5062254;28;20089;-67
2022/03/27 01:29:40;;;;;;;79.53;26.80;;;;;;;;;;5061509;28;20033;-67
2022/03/27 01:32:06;;;;;;;77.27;27.20;;;;;;;;;;5062130;28;20153;-68
2022/03/27 01:34:32;;;;;;;80.40;26.33;;;;;;;;;;5062002;28;20041;-68
2022/03/27 01:37:05;;;;;;;84.77;29.87;;;;;;;;;;5062357;28;20032;-68
2022/03/27 01:39:31;;;;;;;81.07;28.40;;;;;;;;;;5063026;28;20295;-68
2022/03/27 01:41:56;;;;;;;87.83;30.67;;;;;;;;;;5062198;28;20602;-68
2022/03/27 01:44:21;;;;;;;94.37;31.57;;;;;;;;;;5061794;28;20119;-68
2022/03/27 01:46:47;;;;;;;67.47;26.17;;;;;;;;;;5062130;28;20035;-68
2022/03/27 01:49:13;;;;;;;56.30;24.17;;;;;;;;;;5061664;28;20029;-68
2022/03/27 01:51:40;;;;;;;69.30;27.67;;;;;;;;;;5061681;28;20052;-68
2022/03/27 01:54:06;;;;;;;61.47;25.63;;;;;;;;;;5060786;28;20250;-68
2022/03/27 01:56:31;;;;;;;40.70;20.23;;;;;;;;;;5061497;28;20032;-68
2022/03/27 01:58:56;;;;;;;41.23;18.67;;;;;;;;;;5062261;28;20028;-68
2022/03/27 02:01:22;;;;;;;38.70;18.63;;;;;;;;;;5061213;28;20033;-68
2022/03/27 02:03:47;;;;;;;39.37;19.33;;;;;;;;;;5061244;28;20024;-67
2022/03/27 02:06:13;;;;;;;38.03;18.30;;;;;;;;;;5062308;28;20032;-67
2022/03/27 02:08:38;;;;;;;43.03;19.77;;;;;;;;;;5063323;28;20136;-68
2022/03/27 02:11:05;;;;;;;39.40;19.23;;;;;;;;;;5061009;28;20504;-68
2022/03/27 02:13:31;;;;;;;33.77;18.87;;;;;;;;;;5061319;28;20032;-67
2022/03/27 02:15:58;;;;;;;41.17;19.10;;;;;;;;;;5061177;28;20154;-67
2022/03/27 02:18:24;;;;;;;39.70;21.07;;;;;;;;;;5061683;28;20116;-67
2022/03/27 02:20:49;;;;;;;46.63;23.30;;;;;;;;;;5061167;28;20025;-67
2022/03/27 02:23:14;;;;;;;48.23;22.23;;;;;;;;;;5060904;28;20025;-67
2022/03/27 02:25:40;;;;;;;47.93;22.40;;;;;;;;;;5061473;28;20031;-67
2022/03/27 02:28:05;;;;;;;46.87;21.90;;;;;;;;;;5061006;28;20016;-67
2022/03/27 02:30:31;;;;;;;48.37;22.73;;;;;;;;;;5059753;28;20032;-67
2022/03/27 02:32:56;;;;;;;45.50;21.63;;;;;;;;;;5063870;28;20008;-67
2022/03/27 02:35:22;;;;;;;43.70;21.87;;;;;;;;;;5059881;28;20465;-67
2022/03/27 02:37:47;;;;;;;43.33;21.77;;;;;;;;;;5060518;28;20512;-67
2022/03/27 02:40:12;;;;;;;48.47;22.60;;;;;;;;;;5060406;28;20024;-67
2022/03/27 02:42:37;;;;;;;52.63;22.67;;;;;;;;;;5060691;28;20039;-67
2022/03/27 02:45:05;;;;;;;52.20;24.00;;;;;;;;;;5061067;28;20030;-69
2022/03/27 02:47:30;;;;;;;45.47;21.67;;;;;;;;;;5060623;28;20498;-68
2022/03/27 02:49:55;;;;;;;43.37;21.83;;;;;;;;;;5041977;28;20078;-68
2022/03/27 02:52:21;;;;;;;47.03;22.13;;;;;;;;;;5060433;28;20491;-68
2022/03/27 02:54:46;;;;;;;52.53;23.73;;;;;;;;;;5059624;28;20034;-68
2022/03/27 02:57:11;;;;;;;51.13;23.23;;;;;;;;;;5060511;28;20016;-68
2022/03/27 02:59:37;;;;;;;48.70;22.73;;;;;;;;;;5059919;28;20028;-68
2022/03/27 03:02:04;;;;;;;54.73;23.30;;;;;;;;;;5060462;28;20040;-68
2022/03/27 03:04:30;;;;;;;48.87;23.93;;;;;;;;;;5059772;28;20074;-68
2022/03/27 03:06:55;;;;;;;50.83;23.37;;;;;;;;;;5059737;28;20324;-69
2022/03/27 03:09:21;;;;;;;48.57;23.03;;;;;;;;;;5059728;28;20351;-69
2022/03/27 03:11:46;;;;;;;53.50;25.07;;;;;;;;;;5059742;28;20089;-68
2022/03/27 03:14:12;;;;;;;48.30;22.67;;;;;;;;;;5059470;28;20062;-68
2022/03/27 03:16:37;;;;;;;44.07;19.33;;;;;;;;;;5060414;28;20649;-68
2022/03/27 03:19:04;;;;;;;46.60;21.87;;;;;;;;;;5060196;28;20455;-68
2022/03/27 03:21:30;;;;;;;49.53;21.60;;;;;;;;;;5059727;28;20115;-68
2022/03/27 03:23:55;;;;;;;44.43;21.67;;;;;;;;;;5058814;28;20020;-68
2022/03/27 03:26:22;;;;;;;50.20;22.47;;;;;;;;;;5059109;28;20043;-68
2022/03/27 03:28:47;;;;;;;50.03;21.80;;;;;;;;;;5059611;28;20534;-69
2022/03/27 03:31:12;;;;;;;45.57;20.93;;;;;;;;;;5061887;28;20316;-68
2022/03/27 03:33:37;;;;;;;43.07;20.40;;;;;;;;;;5059442;28;20104;-68
2022/03/27 03:36:03;;;;;;;48.20;21.10;;;;;;;;;;5058993;28;20500;-68
2022/03/27 03:38:28;;;;;;;47.33;19.93;;;;;;;;;;5059287;28;20426;-68
2022/03/27 03:40:53;;;;;;;43.37;21.57;;;;;;;;;;5058520;28;20311;-68
2022/03/27 03:43:20;;;;;;;43.47;21.50;;;;;;;;;;5059221;28;20028;-68
2022/03/27 03:45:46;;;;;;;41.37;21.37;;;;;;;;;;5059067;28;20039;-68
2022/03/27 03:48:11;;;;;;;47.27;21.77;;;;;;;;;;5058957;28;20481;-68
2022/03/27 03:50:37;;;;;;;43.57;20.20;;;;;;;;;;5058394;28;20035;-68
2022/03/27 03:53:02;;;;;;;44.50;22.03;;;;;;;;;;5041425;28;20024;-68
2022/03/27 03:55:28;;;;;;;48.83;22.87;;;;;;;;;;5058681;28;20342;-68
2022/03/27 03:57:54;;;;;;;46.93;20.90;;;;;;;;;;5059086;28;20377;-68
2022/03/27 04:00:19;;;;;;;44.47;21.53;;;;;;;;;;5058323;28;20028;-68
2022/03/27 04:02:44;;;;;;;51.20;22.47;;;;;;;;;;5059042;28;20051;-68
2022/03/27 04:05:09;;;;;;;51.00;21.93;;;;;;;;;;5058406;28;20063;-68
2022/03/27 04:07:35;;;;;;;47.10;21.20;;;;;;;;;;5058901;28;20028;-68
2022/03/27 04:10:00;;;;;;;51.17;22.57;;;;;;;;;;5060309;28;20087;-68
2022/03/27 04:12:25;;;;;;;45.70;22.23;;;;;;;;;;5057755;28;20297;-68
2022/03/27 04:14:51;;;;;;;48.63;22.30;;;;;;;;;;5058505;28;20036;-68
2022/03/27 04:17:16;;;;;;;49.03;22.27;;;;;;;;;;5058728;28;20021;-69
2022/03/27 04:19:42;;;;;;;48.03;20.60;;;;;;;;;;5058639;28;20040;-68
2022/03/27 04:22:07;;;;;;;48.60;22.40;;;;;;;;;;5058353;28;20130;-68
2022/03/27 04:24:33;;;;;;;46.43;23.43;;;;;;;;;;5058181;28;20119;-68
2022/03/27 04:26:58;;;;;;;42.10;21.67;;;;;;;;;;5058803;28;20024;-68
2022/03/27 04:29:23;;;;;;;46.97;21.23;;;;;;;;;;5058007;28;20093;-68
2022/03/27 04:31:48;;;;;;;47.13;21.33;;;;;;;;;;5058710;28;20032;-68
2022/03/27 04:34:14;;;;;;;46.97;20.77;;;;;;;;;;5058467;28;20065;-68
2022/03/27 04:36:40;;;;;;;46.20;21.13;;;;;;;;;;5058247;28;20397;-68
2022/03/27 04:39:06;;;;;;;46.20;20.40;;;;;;;;;;5057954;28;20019;-68
2022/03/27 04:41:31;;;;;;;41.50;22.73;;;;;;;;;;5060600;28;20037;-68
2022/03/27 04:43:56;;;;;;;46.23;21.57;;;;;;;;;;5058735;28;20025;-68
2022/03/27 04:46:21;;;;;;;48.90;21.77;;;;;;;;;;5058291;28;20126;-68
2022/03/27 04:48:47;;;;;;;48.60;20.03;;;;;;;;;;5058377;28;20039;-68
2022/03/27 04:51:12;;;;;;;44.40;20.87;;;;;;;;;;5057580;28;20028;-68
2022/03/27 04:53:38;;;;;;;44.60;20.57;;;;;;;;;;5058169;28;20066;-68
2022/03/27 04:56:03;;;;;;;44.60;21.60;;;;;;;;;;5058469;28;20259;-68
2022/03/27 04:58:29;;;;;;;40.50;20.27;;;;;;;;;;5058393;28;20021;-68
2022/03/27 05:00:54;;;;;;;43.93;21.43;;;;;;;;;;5057421;28;20017;-68
2022/03/27 05:03:19;;;;;;;43.23;19.73;;;;;;;;;;5058576;28;20028;-68
2022/03/27 05:05:44;;;;;;;48.63;21.67;;;;;;;;;;5057714;28;20053;-68
2022/03/27 05:08:10;;;;;;;54.57;22.13;;;;;;;;;;5058781;28;20024;-68
2022/03/27 05:10:35;;;;;;;48.63;21.40;;;;;;;;;;5058092;28;20064;-68
2022/03/27 05:13:01;;;;;;;46.93;21.50;;;;;;;;;;5058380;28;20036;-68
2022/03/27 05:15:27;;;;;;;52.03;21.83;;;;;;;;;;5057618;28;20043;-68
2022/03/27 05:17:55;;;;;;;50.73;21.17;;;;;;;;;;5058426;28;20665;-68
2022/03/27 05:20:20;;;;;;;48.07;20.77;;;;;;;;;;5057976;28;20213;-68
2022/03/27 05:22:46;;;;;;;43.80;20.67;;;;;;;;;;5057381;28;20035;-68
2022/03/27 05:25:12;;;;;;;45.17;21.07;;;;;;;;;;5057626;28;20036;-68
2022/03/27 05:27:44;;;;;;;44.13;21.53;;;;;;;;;;5058323;28;20074;-68
2022/03/27 05:30:10;;;;;;;48.23;21.43;;;;;;;;;;5058000;28;20128;-68
2022/03/27 05:32:35;;;;;;;50.40;21.47;;;;;;;;;;5057867;28;20604;-68
2022/03/27 05:35:01;;;;;;;47.43;22.30;;;;;;;;;;5059489;28;20213;-68
2022/03/27 05:37:26;;;;;;;46.97;21.10;;;;;;;;;;5059028;28;20025;-68
2022/03/27 05:39:51;;;;;;;47.27;21.70;;;;;;;;;;5057697;28;20480;-68
2022/03/27 05:42:16;;;;;;;47.60;20.93;;;;;;;;;;5058017;28;20051;-68
2022/03/27 05:44:42;;;;;;;43.13;20.40;;;;;;;;;;5057261;28;20032;-68
2022/03/27 05:47:07;;;;;;;48.13;20.73;;;;;;;;;;5057813;28;20025;-68
2022/03/27 05:49:32;;;;;;;44.80;20.60;;;;;;;;;;5058205;28;20065;-68
2022/03/27 05:51:57;;;;;;;40.80;20.27;;;;;;;;;;5057686;28;20291;-68
2022/03/27 05:54:23;;;;;;;41.93;20.33;;;;;;;;;;5057721;28;20075;-68
2022/03/27 05:56:48;;;;;;;41.20;20.87;;;;;;;;;;5057059;28;20024;-68
2022/03/27 05:59:14;;;;;;;44.63;21.50;;;;;;;;;;5057663;28;20024;-68
2022/03/27 06:01:40;;;;;;;47.20;20.53;;;;;;;;;;5057456;28;20028;-68
2022/03/27 06:04:05;;;;;;;51.60;20.30;;;;;;;;;;5057880;28;20048;-68
2022/03/27 06:06:30;;;;;;;43.23;20.60;;;;;;;;;;5063567;28;20178;-68
2022/03/27 06:08:57;;;;;;;45.07;21.37;;;;;;;;;;5061144;28;20048;-68
2022/03/27 06:11:22;;;;;;;47.50;21.10;;;;;;;;;;5060907;28;20024;-68
2022/03/27 06:13:48;;;;;;;47.53;22.13;;;;;;;;;;5061549;28;20224;-68
2022/03/27 06:16:13;;;;;;;47.73;20.27;;;;;;;;;;5061447;28;20055;-68
2022/03/27 06:18:38;;;;;;;47.03;21.20;;;;;;;;;;5060592;28;20366;-68
2022/03/27 06:21:03;;;;;;;42.13;21.23;;;;;;;;;;5060063;28;20444;-68
2022/03/27 06:23:29;;;;;;;43.10;21.23;;;;;;;;;;5060793;28;20024;-68
2022/03/27 06:25:54;;;;;;;38.90;21.07;;;;;;;;;;5060970;28;20028;-68
2022/03/27 06:28:19;;;;;;;43.87;21.70;;;;;;;;;;5060940;28;20541;-68
2022/03/27 06:30:44;;;;;;;48.33;22.00;;;;;;;;;;5060593;28;20036;-68
2022/03/27 06:33:10;;;;;;;42.37;21.87;;;;;;;;;;5060845;28;20027;-68
2022/03/27 06:35:37;;;;;;;47.10;23.20;;;;;;;;;;5060089;28;20173;-68
2022/03/27 06:38:02;;;;;;;47.07;22.30;;;;;;;;;;5061028;28;20332;-69
2022/03/27 06:40:27;;;;;;;46.77;22.13;;;;;;;;;;5059716;28;20024;-69
2022/03/27 06:42:53;;;;;;;39.40;20.40;;;;;;;;;;5061171;28;20121;-69
2022/03/27 06:45:18;;;;;;;41.07;21.80;;;;;;;;;;5062866;28;20173;-69
2022/03/27 06:47:44;;;;;;;39.87;20.80;;;;;;;;;;5060432;28;20048;-69
2022/03/27 06:50:10;;;;;;;42.47;21.47;;;;;;;;;;5060592;28;20037;-69
2022/03/27 06:52:36;;;;;;;44.23;22.23;;;;;;;;;;5060612;28;20558;-68
2022/03/27 06:55:02;;;;;;;45.47;21.47;;;;;;;;;;5060190;28;20079;-68
2022/03/27 06:57:27;;;;;;;47.03;20.73;;;;;;;;;;5059864;28;20204;-68
2022/03/27 07:05:22;;;;;;;41.93;20.00;;;;;;;;;;5059801;28;20355;-68
2022/03/27 07:07:51;;;;;;;45.93;21.73;;;;;;;;;;5060280;28;20047;-68
2022/03/27 07:10:16;;;;;;;42.17;20.57;;;;;;;;;;5059962;28;20024;-68
2022/03/27 07:12:42;;;;;;;43.33;20.80;;;;;;;;;;5060505;28;20023;-68
2022/03/27 07:15:08;;;;;;;43.70;20.87;;;;;;;;;;5059500;28;20023;-69
2022/03/27 07:17:41;;;;;;;44.37;21.83;;;;;;;;;;5058355;28;20031;-69
2022/03/27 07:20:07;;;;;;;37.77;20.60;;;;;;;;;;5059817;28;20121;-69
2022/03/27 07:22:32;;;;;;;41.53;21.07;;;;;;;;;;5060346;28;20070;-69
2022/03/27 07:24:57;;;;;;;38.60;19.93;;;;;;;;;;5059771;28;20424;-69
2022/03/27 07:27:23;;;;;;;50.47;24.43;;;;;;;;;;5060336;28;20024;-68
2022/03/27 07:29:48;;;;;;;52.23;24.80;;;;;;;;;;5059274;28;20069;-68
2022/03/27 07:32:13;;;;;;;57.60;25.67;;;;;;;;;;5059018;28;20116;-68
2022/03/27 07:34:40;;;;;;;49.40;24.87;;;;;;;;;;5059590;28;20094;-68
2022/03/27 07:37:06;;;;;;;51.27;26.70;;;;;;;;;;5059764;28;20016;-68
2022/03/27 07:39:31;;;;;;;52.33;25.50;;;;;;;;;;5059216;28;20403;-68
2022/03/27 07:41:56;;;;;;;44.63;23.83;;;;;;;;;;5059895;28;20020;-68
2022/03/27 07:44:22;;;;;;;50.10;24.80;;;;;;;;;;5062015;28;20521;-68
2022/03/27 07:46:52;;;;;;;47.30;24.10;;;;;;;;;;5059761;28;20505;-68
2022/03/27 07:49:19;;;;;;;46.60;22.83;;;;;;;;;;5059139;28;20020;-68
2022/03/27 07:51:44;;;;;;;48.37;24.10;;;;;;;;;;5059549;28;20016;-68
2022/03/27 07:54:09;;;;;;;48.43;24.27;;;;;;;;;;5059743;28;20028;-68
2022/03/27 07:56:36;;;;;;;49.40;25.00;;;;;;;;;;5059380;28;20385;-68
2022/03/27 07:59:01;;;;;;;49.03;23.40;;;;;;;;;;5059202;28;20035;-68
2022/03/27 08:01:28;;;;;;;44.63;23.43;;;;;;;;;;5061978;28;20032;-68
2022/03/27 08:03:56;;;;;;;44.90;24.43;;;;;;;;;;5059276;28;20187;-68
2022/03/27 08:06:21;;;;;;;50.33;25.13;;;;;;;;;;5059357;28;20029;-68
2022/03/27 08:08:47;;;;;;;48.80;25.83;;;;;;;;;;5060285;28;20377;-68
2022/03/27 08:11:13;;;;;;;52.07;26.47;;;;;;;;;;5058877;28;20032;-68
2022/03/27 08:13:38;;;;;;;51.40;26.43;;;;;;;;;;5059566;28;20027;-68
2022/03/27 08:16:04;;;;;;;51.67;28.47;;;;;;;;;;5058992;28;20058;-68
2022/03/27 08:18:29;;;;;;;51.43;26.87;;;;;;;;;;5059122;28;20040;-68
2022/03/27 08:20:55;;;;;;;49.13;26.13;;;;;;;;;;5058632;28;20127;-68
2022/03/27 08:23:20;;;;;;;50.20;25.77;;;;;;;;;;5059048;28;20029;-68
2022/03/27 08:28:29;;;;;;;42.67;23.80;;;;;;;;;;5058477;28;20558;-69
2022/03/27 08:30:54;;;;;;;42.35;23.30;;;;;;;;;;5058534;28;20044;-69
2022/03/27 08:33:19;;;;;;;37.47;21.88;;;;;;;;;;5059108;28;20046;-69
2022/03/27 08:35:46;;;;;;;41.03;22.80;;;;;;;;;;5058841;28;20551;-69
2022/03/27 08:38:12;;;;;;;42.03;23.38;;;;;;;;;;5058916;28;20035;-69
2022/03/27 08:40:38;;;;;;;40.28;22.65;;;;;;;;;;5057760;28;20103;-69
2022/03/27 08:43:06;;;;;;;40.63;24.00;;;;;;;;;;5058695;28;20040;-69
2022/03/27 08:45:31;;;;;;;40.65;23.63;;;;;;;;;;5058557;28;20063;-68
2022/03/27 08:47:56;;;;;;;42.92;24.70;;;;;;;;;;5061343;28;20239;-68
2022/03/27 08:50:26;;;;;;;50.38;26.00;;;;;;;;;;5058475;28;20033;-68
2022/03/27 08:52:56;;;;;;;44.10;24.38;;;;;;;;;;5058604;28;20633;-68
2022/03/27 08:55:24;;;;;;;46.90;26.13;;;;;;;;;;5058552;28;20099;-68
2022/03/27 08:57:54;;;;;;;43.50;25.23;;;;;;;;;;5058361;28;20040;-68
2022/03/27 09:00:21;;;;;;;44.10;26.02;;;;;;;;;;5058293;28;20036;-68
2022/03/27 09:02:46;;;;;;;46.10;25.33;;;;;;;;;;5058105;28;20416;-68
2022/03/27 09:05:12;;;;;;;51.65;26.25;;;;;;;;;;5049472;28;20056;-68
2022/03/27 09:07:37;;;;;;;45.13;24.70;;;;;;;;;;5058286;28;20036;-68
2022/03/27 09:10:09;;;;;;;42.38;24.33;;;;;;;;;;5057688;28;20439;-68
2022/03/27 09:12:35;;;;;;;45.75;24.95;;;;;;;;;;5049292;28;20048;-68
2022/03/27 09:15:02;;;;;;;43.60;24.02;;;;;;;;;;5058136;28;20289;-68
2022/03/27 09:17:27;;;;;;;45.88;23.83;;;;;;;;;;5058633;28;20571;-68
2022/03/27 09:19:52;;;;;;;42.10;24.13;;;;;;;;;;5053534;28;20029;-68
2022/03/27 09:22:21;;;;;;;41.75;22.92;;;;;;;;;;5057560;28;20123;-69
2022/03/27 09:24:48;;;;;;;36.53;21.13;;;;;;;;;;5057956;28;20043;-69
2022/03/27 09:27:14;;;;;;;35.25;21.77;;;;;;;;;;5057803;28;20025;-70
2022/03/27 09:29:55;;;;;;;33.33;20.45;;;;;;;;;;5057360;28;20032;-69
2022/03/27 09:32:27;;;;;;;31.65;21.30;;;;;;;;;;5057392;28;20025;-69
2022/03/27 09:35:04;;;;;;;35.05;21.55;;;;;;;;;;5058103;28;20722;-69
2022/03/27 09:37:33;;;;;;;34.17;22.42;;;;;;;;;;5060507;28;20051;-69
2022/03/27 09:39:59;;;;;;;32.28;21.95;;;;;;;;;;5058304;28;20027;-69
2022/03/27 09:42:25;;;;;;;31.67;20.73;;;;;;;;;;5062248;28;20020;-69
2022/03/27 09:45:08;;;;;;;35.78;21.98;;;;;;;;;;5061572;28;20032;-69
2022/03/27 09:47:33;;;;;;;32.85;21.92;;;;;;;;;;5061993;28;20123;-69
2022/03/27 09:49:59;;;;;;;36.13;21.88;;;;;;;;;;5061046;28;20111;-69
2022/03/27 09:52:24;;;;;;;33.20;22.00;;;;;;;;;;5061722;28;20039;-69
2022/03/27 09:54:49;;;;;;;35.42;22.27;;;;;;;;;;5064119;28;20161;-69
2022/03/27 09:57:16;;;;;;;35.20;22.83;;;;;;;;;;5061546;28;20025;-69
2022/03/27 09:59:41;;;;;;;39.03;23.00;;;;;;;;;;5061170;28;20078;-69
2022/03/27 10:02:16;;;;;;;35.67;23.08;;;;;;;;;;5061470;28;20115;-69
2022/03/27 10:04:53;;;;;;;36.70;22.38;;;;;;;;;;5045423;28;20040;-69
2022/03/27 10:07:19;;;;;;;37.30;22.88;;;;;;;;;;5049029;28;20017;-69
2022/03/27 10:09:44;;;;;;;34.05;21.95;;;;;;;;;;5061135;28;20094;-69
2022/03/27 10:12:09;;;;;;;35.47;21.90;;;;;;;;;;5061460;28;20051;-69
2022/03/27 10:14:35;;;;;;;37.50;23.00;;;;;;;;;;5061394;28;20261;-69
2022/03/27 10:17:01;;;;;;;37.22;22.55;;;;;;;;;;5061561;28;20492;-69
2022/03/27 10:19:33;;;;;;;33.78;21.85;;;;;;;;;;5060534;28;20064;-69
2022/03/27 10:21:58;;;;;;;;;;;;;;;;;;5060558;28;20025;-69
2022/03/27 10:24:26;;;;;;;37.92;22.77;;;;;;;;;;5061134;28;19905;-69
2022/03/27 10:26:52;;;;;;;40.42;24.17;;;;;;;;;;5060690;28;20028;-69
2022/03/27 10:29:17;;;;;;;37.58;23.20;;;;;;;;;;5060797;28;20044;-68
2022/03/27 10:31:42;;;;;;;43.78;25.80;;;;;;;;;;5059032;28;20057;-68
2022/03/27 10:34:10;;;;;;;44.00;25.45;;;;;;;;;;5059689;28;20293;-68
2022/03/27 10:36:53;;;;;;;51.20;26.30;;;;;;;;;;5060318;28;20020;-68
2022/03/27 10:39:22;;;;;;;50.27;25.87;;;;;;;;;;5059323;28;20028;-68
2022/03/27 10:41:47;;;;;;;47.63;24.63;;;;;;;;;;5060251;28;20016;-68
2022/03/27 10:44:19;;;;;;;44.50;23.73;;;;;;;;;;5059736;28;20633;-68
2022/03/27 10:46:47;;;;;;;;;;;;;;;;;;5060702;28;20393;-68
2022/03/27 10:49:14;;;;;;;48.33;26.00;;;;;;;;;;5060483;28;20504;-68
2022/03/27 10:51:46;;;;;;;50.87;26.63;;;;;;;;;;5062196;28;20021;-68
2022/03/27 10:54:14;;;;;;;46.53;25.87;;;;;;;;;;5059909;28;20070;-68
2022/03/27 10:56:44;;;;;;;51.17;25.13;;;;;;;;;;5060482;28;20024;-68
2022/03/27 10:59:10;;;;;;;46.13;24.87;;;;;;;;;;5059248;28;20020;-68
2022/03/27 11:01:37;;;;;;;50.43;24.87;;;;;;;;;;5058539;28;20542;-67
2022/03/27 11:04:21;;;;;;;48.53;24.63;;;;;;;;;;5060563;28;20192;-67
2022/03/27 11:06:51;;;;;;;48.53;24.47;;;;;;;;;;5057394;28;20035;-67
2022/03/27 11:09:32;;;;;;;50.73;24.53;;;;;;;;;;5058746;28;20024;-67
2022/03/27 11:11:58;;;;;;;41.27;23.87;;;;;;;;;;5059987;28;20026;-67
2022/03/27 11:14:24;;;;;;;50.37;24.90;;;;;;;;;;5059312;28;20497;-68
2022/03/27 11:17:05;;;;;;;42.43;23.10;;;;;;;;;;5060615;28;20012;-68
2022/03/27 11:19:46;;;;;;;41.30;21.60;;;;;;;;;;5060218;28;20094;-68
2022/03/27 11:22:37;;;;;;;40.67;23.37;;;;;;;;;;5059159;28;20020;-68
2022/03/27 11:25:21;;;;;;;47.30;22.50;;;;;;;;;;5058325;28;20036;-68
2022/03/27 11:27:52;;;;;;;38.40;21.67;;;;;;;;;;5059370;28;20032;-68
2022/03/27 11:30:17;;;;;;;38.17;19.87;;;;;;;;;;5059668;28;20103;-68
2022/03/27 11:33:01;;;;;;;42.17;23.40;;;;;;;;;;5058863;28;21825;-68
2022/03/27 11:35:27;;;;;;;41.33;22.00;;;;;;;;;;5058585;28;20100;-68
2022/03/27 11:38:10;;;;;;;46.60;23.40;;;;;;;;;;5059720;28;20582;-68
2022/03/27 11:40:37;;;;;;;39.23;22.50;;;;;;;;;;5064991;28;20035;-68
2022/03/27 11:43:22;;;;;;;44.13;22.63;;;;;;;;;;5059461;28;20400;-68
2022/03/27 11:45:48;;;;;;;43.70;22.27;;;;;;;;;;5058901;28;20546;-68
2022/03/27 11:48:14;;;;;;;41.40;22.33;;;;;;;;;;5060522;28;20028;-68
2022/03/27 11:50:39;;;;;;;42.17;22.87;;;;;;;;;;5058827;28;20446;-68
2022/03/27 11:53:05;;;;;;;44.67;24.37;;;;;;;;;;5059092;28;20634;-68
2022/03/27 11:55:31;;;;;;;43.53;24.10;;;;;;;;;;5058313;28;20016;-68
2022/03/27 11:57:57;;;;;;;43.27;23.50;;;;;;;;;;5059607;28;20056;-68
2022/03/27 12:00:31;;;;;;;40.23;23.13;;;;;;;;;;5057743;28;20043;-68
2022/03/27 12:02:57;;;;;;;42.90;23.33;;;;;;;;;;5057877;28;20082;-68
2022/03/27 12:05:31;;;;;;;43.67;22.50;;;;;;;;;;5058470;28;20595;-68
2022/03/27 12:07:56;;;;;;;46.43;24.50;;;;;;;;;;5059000;28;20020;-68
2022/03/27 12:10:22;;;;;;;38.80;22.33;;;;;;;;;;5058441;28;20166;-68
2022/03/27 12:12:57;;;;;;;40.40;21.67;;;;;;;;;;5059168;28;20012;-68
2022/03/27 12:15:22;;;;;;;39.67;22.60;;;;;;;;;;5058768;28;20493;-68
2022/03/27 12:17:47;;;;;;;40.97;22.87;;;;;;;;;;5058543;28;20013;-68
2022/03/27 12:20:12;;;;;;;36.57;19.83;;;;;;;;;;5058459;28;20036;-68
2022/03/27 12:22:39;;;;;;;43.72;22.55;;;;;;;;;;5059731;28;20026;-69
2022/03/27 12:25:07;;;;;;;34.38;19.92;;;;;;;;;;5058304;28;20102;-69
2022/03/27 12:30:16;;;;;;;31.33;19.85;;;;;;;;;;5058918;28;20031;-71
2022/03/27 12:32:41;;;;;;;30.73;19.85;;;;;;;;;;5058592;28;20511;-71
2022/03/27 12:35:07;;;;;;;32.88;20.13;;;;;;;;;;5057736;28;20047;-71
2022/03/27 12:37:35;;;;;;;35.72;19.60;;;;;;;;;;5059504;28;20022;-71
2022/03/27 12:40:03;;;;;;;31.92;20.58;;;;;;;;;;5058246;28;20039;-71
2022/03/27 12:42:33;;;;;;;28.58;19.58;;;;;;;;;;5058764;28;20449;-71
2022/03/27 12:45:03;;;;;;;28.73;18.80;;;;;;;;;;5058139;28;20216;-71
2022/03/27 12:47:29;;;;;;;33.78;19.38;;;;;;;;;;5060037;28;20032;-71
2022/03/27 12:49:54;;;;;;;29.42;18.42;;;;;;;;;;5058932;28;20021;-71
2022/03/27 12:52:19;;;;;;;25.75;18.25;;;;;;;;;;5058812;28;20191;-72
2022/03/27 12:54:58;;;;;;;29.30;18.40;;;;;;;;;;5058786;28;20070;-72
2022/03/27 12:57:24;;;;;;;27.92;18.15;;;;;;;;;;5058628;28;20020;-72
2022/03/27 12:59:49;;;;;;;27.17;17.95;;;;;;;;;;5058400;28;20032;-72
2022/03/27 13:02:27;;;;;;;27.15;17.70;;;;;;;;;;5058506;28;20028;-72
2022/03/27 13:04:56;;;;;;;27.02;17.75;;;;;;;;;;5057227;28;20075;-72
2022/03/27 13:07:41;;;;;;;25.08;17.63;;;;;;;;;;5058051;28;20583;-72
2022/03/27 13:10:10;;;;;;;27.58;17.35;;;;;;;;;;5058396;28;20498;-72
2022/03/27 13:12:35;;;;;;;30.35;19.60;;;;;;;;;;5058542;28;20464;-71
2022/03/27 13:15:02;;;;;;;28.00;19.15;;;;;;;;;;5061689;28;20056;-71
2022/03/27 13:17:27;;;;;;;28.65;18.42;;;;;;;;;;5062940;28;20034;-71
2022/03/27 13:19:53;;;;;;;30.33;19.85;;;;;;;;;;5060858;28;20407;-72
2022/03/27 13:22:18;;;;;;;28.10;19.17;;;;;;;;;;5055520;28;20021;-71
2022/03/27 13:24:48;;;;;;;30.70;18.80;;;;;;;;;;5060858;28;20020;-72
2022/03/27 13:27:13;;;;;;;29.27;18.88;;;;;;;;;;5055969;28;20090;-72
2022/03/27 13:29:38;;;;;;;28.75;19.10;;;;;;;;;;5060618;28;20484;-72
2022/03/27 13:32:05;;;;;;;30.40;18.88;;;;;;;;;;5058172;28;20511;-72
2022/03/27 13:34:30;;;;;;;26.88;18.52;;;;;;;;;;5058798;28;20512;-72
2022/03/27 13:36:56;;;;;;;27.67;19.35;;;;;;;;;;5056962;28;20035;-72
2022/03/27 13:39:23;;;;;;;26.42;18.70;;;;;;;;;;5063119;28;20031;-72
2022/03/27 13:44:35;;;;;;;29.55;18.33;;;;;;;;;;5070212;28;20055;-72
2022/03/27 13:47:02;;;;;;;26.05;17.13;;;;;;;;;;5058591;28;20397;-72
2022/03/27 13:49:28;;;;;;;24.60;16.98;;;;;;;;;;5058140;28;20060;-72
2022/03/27 13:51:53;;;;;;;28.15;17.65;;;;;;;;;;5059714;28;20060;-72
2022/03/27 13:54:20;;;;;;;25.38;16.60;;;;;;;;;;5058193;28;20028;-72
2022/03/27 13:56:46;;;;;;;25.80;15.82;;;;;;;;;;5058579;28;20097;-72
2022/03/27 13:59:13;;;;;;;25.08;15.77;;;;;;;;;;5061748;28;20033;-72
2022/03/27 14:01:41;;;;;;;23.27;14.88;;;;;;;;;;5058960;28;20058;-72
2022/03/27 14:04:08;;;;;;;23.35;14.65;;;;;;;;;;5053677;28;20043;-73
2022/03/27 14:06:35;;;;;;;21.45;15.20;;;;;;;;;;5058938;28;20444;-72
2022/03/27 14:09:01;;;;;;;23.92;16.35;;;;;;;;;;5059215;28;20254;-73
2022/03/27 14:11:26;;;;;;;24.27;15.00;;;;;;;;;;5059020;28;20032;-72
2022/03/27 14:13:52;;;;;;;25.85;14.60;;;;;;;;;;5060252;28;20020;-72
2022/03/27 14:16:18;;;;;;;21.20;13.88;;;;;;;;;;5059064;28;20214;-73
2022/03/27 14:18:43;;;;;;;23.58;14.95;;;;;;;;;;5058453;28;20028;-72
2022/03/27 14:21:08;;;;;;;24.92;15.30;;;;;;;;;;5058003;28;20028;-72
2022/03/27 14:23:34;;;;;;;23.02;14.40;;;;;;;;;;5059339;28;20146;-72
2022/03/27 14:26:01;;;;;;;21.85;14.02;;;;;;;;;;5058309;28;20024;-72
2022/03/27 14:28:28;;;;;;;26.33;15.25;;;;;;;;;;5058140;28;20025;-72
2022/03/27 14:30:53;;;;;;;25.42;15.40;;;;;;;;;;5058081;28;20241;-72